Time;durP1;ratioP1;P1;durP2;ratioP2;P2;SDS_P1;SDS_P2;PMS_P1;PMS_P2;Temp;Humidity;BMP_temperature;BMP_pressure;BME280_temperature;BME280_humidity;BME280_pressure;Samples;Min_cycle;Max_cycle;Signal;HPM_P1;HPM_P2
2022/06/19 00:01:12;;;;;;;6.30;3.03;;;;;;;;;;3342898;42;20096;-58
2022/06/19 00:03:41;;;;;;;7.43;3.10;;;;;;;;;;3345777;42;20113;-60
2022/06/19 00:06:07;;;;;;;6.75;3.33;;;;;;;;;;3342846;42;20115;-59
2022/06/19 00:08:33;;;;;;;6.17;3.03;;;;;;;;;;3338304;42;20161;-56
2022/06/19 00:10:59;;;;;;;7.60;3.15;;;;;;;;;;3346847;42;20123;-58
2022/06/19 00:13:25;;;;;;;8.52;3.28;;;;;;;;;;3347956;42;20149;-59
2022/06/19 00:15:51;;;;;;;8.52;3.50;;;;;;;;;;3341399;42;20097;-59
2022/06/19 00:18:17;;;;;;;9.10;2.93;;;;;;;;;;3347962;42;20119;-60
2022/06/19 00:20:43;;;;;;;10.18;3.10;;;;;;;;;;3340351;42;20573;-58
2022/06/19 00:23:09;;;;;;;8.65;3.38;;;;;;;;;;3345324;42;20564;-60
2022/06/19 00:25:37;;;;;;;8.73;3.17;;;;;;;;;;3344454;42;20085;-58
2022/06/19 00:28:04;;;;;;;9.27;3.37;;;;;;;;;;3336076;42;20561;-58
2022/06/19 00:30:30;;;;;;;7.15;2.80;;;;;;;;;;3344220;42;20107;-56
2022/06/19 00:32:58;;;;;;;6.82;2.80;;;;;;;;;;3340594;42;20100;-59
2022/06/19 00:35:26;;;;;;;8.60;2.85;;;;;;;;;;3340934;42;20081;-60
2022/06/19 00:37:53;;;;;;;9.95;3.10;;;;;;;;;;3345998;42;20190;-60
2022/06/19 00:40:19;;;;;;;6.83;2.70;;;;;;;;;;3344030;42;20103;-59
2022/06/19 00:42:45;;;;;;;6.90;2.80;;;;;;;;;;3345102;42;20088;-57
2022/06/19 00:45:38;;;;;;;6.53;3.10;;;;;;;;;;3345089;42;20164;-58
2022/06/19 00:48:10;;;;;;;6.50;2.70;;;;;;;;;;3344819;42;20556;-59
2022/06/19 00:50:36;;;;;;;6.63;2.83;;;;;;;;;;3341962;42;20120;-57
2022/06/19 00:53:02;;;;;;;7.43;2.90;;;;;;;;;;3336273;42;20096;-59
2022/06/19 00:55:34;;;;;;;6.18;2.60;;;;;;;;;;3339682;42;20160;-58
2022/06/19 00:58:14;;;;;;;9.05;2.85;;;;;;;;;;3343765;42;20109;-57
2022/06/19 01:00:40;;;;;;;8.00;2.65;;;;;;;;;;3334988;42;20499;-59
2022/06/19 01:03:09;;;;;;;6.65;2.72;;;;;;;;;;3341592;42;20100;-58
2022/06/19 01:05:36;;;;;;;6.97;2.40;;;;;;;;;;3335376;42;20220;-58
2022/06/19 01:08:02;;;;;;;6.30;2.50;;;;;;;;;;3347978;42;20095;-57
2022/06/19 01:10:28;;;;;;;7.88;2.70;;;;;;;;;;3344575;42;20096;-58
2022/06/19 01:12:54;;;;;;;6.63;2.70;;;;;;;;;;3336633;42;20097;-58
2022/06/19 01:15:21;;;;;;;6.60;2.70;;;;;;;;;;3332399;42;20089;-58
2022/06/19 01:17:50;;;;;;;7.00;2.30;;;;;;;;;;3339308;42;20089;-58
2022/06/19 01:20:15;;;;;;;7.05;2.80;;;;;;;;;;3346322;42;20088;-59
2022/06/19 01:22:47;;;;;;;7.82;3.00;;;;;;;;;;3345559;42;20093;-55
2022/06/19 01:25:15;;;;;;;7.55;3.03;;;;;;;;;;3346841;42;20085;-58
2022/06/19 01:30:33;;;;;;;5.60;2.42;;;;;;;;;;3337087;42;20115;-58
2022/06/19 01:32:59;;;;;;;6.65;2.70;;;;;;;;;;3344974;42;20093;-58
2022/06/19 01:35:27;;;;;;;9.15;2.55;;;;;;;;;;3342751;42;20482;-58
2022/06/19 01:37:53;;;;;;;5.60;2.50;;;;;;;;;;3347505;42;20175;-56
2022/06/19 01:40:21;;;;;;;6.33;2.20;;;;;;;;;;3343866;42;20100;-58
2022/06/19 01:42:47;;;;;;;6.28;2.33;;;;;;;;;;3342479;42;20176;-59
2022/06/19 01:45:13;;;;;;;5.68;2.33;;;;;;;;;;3344558;42;20523;-59
2022/06/19 01:47:40;;;;;;;6.72;2.50;;;;;;;;;;3343894;42;20094;-56
2022/06/19 01:50:08;;;;;;;5.57;2.40;;;;;;;;;;3341438;42;20091;-59
2022/06/19 01:52:34;;;;;;;7.95;2.35;;;;;;;;;;3344018;42;20629;-58
2022/06/19 01:55:12;;;;;;;5.10;2.10;;;;;;;;;;3344218;42;20684;-58
2022/06/19 01:57:40;;;;;;;5.80;2.20;;;;;;;;;;3343506;42;20104;-57
2022/06/19 02:00:09;;;;;;;5.90;2.00;;;;;;;;;;3341966;42;20556;-56
2022/06/19 02:02:35;;;;;;;6.43;2.40;;;;;;;;;;3344572;42;20560;-58
2022/06/19 02:05:01;;;;;;;7.70;2.35;;;;;;;;;;3331769;42;20160;-58
2022/06/19 02:07:27;;;;;;;5.18;2.33;;;;;;;;;;3341634;42;20104;-57
2022/06/19 02:09:54;;;;;;;7.95;2.45;;;;;;;;;;3344751;42;20471;-58
2022/06/19 02:12:24;;;;;;;6.33;2.23;;;;;;;;;;3333801;42;20092;-58
2022/06/19 02:14:50;;;;;;;6.70;2.20;;;;;;;;;;3334957;42;20103;-58
2022/06/19 02:17:31;;;;;;;5.78;2.20;;;;;;;;;;3348140;42;20590;-57
2022/06/19 02:19:57;;;;;;;5.85;2.30;;;;;;;;;;3345620;42;20111;-59
2022/06/19 02:22:23;;;;;;;6.20;2.10;;;;;;;;;;3340202;42;20510;-58
2022/06/19 02:24:49;;;;;;;5.93;2.10;;;;;;;;;;3343437;42;20103;-56
2022/06/19 02:27:15;;;;;;;5.20;2.13;;;;;;;;;;3343990;42;20204;-59
2022/06/19 02:29:41;;;;;;;6.05;2.22;;;;;;;;;;3346599;42;20085;-58
2022/06/19 02:32:25;;;;;;;5.40;2.00;;;;;;;;;;3338745;42;20112;-58
2022/06/19 02:34:51;;;;;;;6.40;2.20;;;;;;;;;;3346498;42;20592;-59
2022/06/19 02:37:21;;;;;;;6.05;1.92;;;;;;;;;;3345055;42;20112;-58
2022/06/19 02:40:07;;;;;;;5.00;2.08;;;;;;;;;;3341607;42;20152;-57
2022/06/19 02:42:33;;;;;;;6.88;2.00;;;;;;;;;;3343962;42;20166;-58
2022/06/19 02:45:04;;;;;;;4.65;1.92;;;;;;;;;;3343780;42;20120;-58
2022/06/19 02:47:32;;;;;;;5.10;2.07;;;;;;;;;;3346285;42;20199;-59
2022/06/19 02:49:58;;;;;;;5.32;1.90;;;;;;;;;;3343132;42;20152;-57
2022/06/19 02:52:24;;;;;;;6.28;1.95;;;;;;;;;;3348614;42;20167;-59
2022/06/19 02:54:50;;;;;;;5.20;1.90;;;;;;;;;;3341812;42;20084;-57
2022/06/19 02:57:16;;;;;;;4.70;1.93;;;;;;;;;;3342088;42;20598;-58
2022/06/19 02:59:42;;;;;;;4.87;1.87;;;;;;;;;;3344383;42;20299;-59
2022/06/19 03:02:09;;;;;;;4.60;1.90;;;;;;;;;;3341848;42;20105;-57
2022/06/19 03:04:38;;;;;;;5.38;2.00;;;;;;;;;;3343590;42;20144;-58
2022/06/19 03:07:04;;;;;;;5.25;2.00;;;;;;;;;;3345946;42;20132;-56
2022/06/19 03:09:30;;;;;;;5.47;2.00;;;;;;;;;;3346203;42;20081;-59
2022/06/19 03:11:56;;;;;;;6.35;2.30;;;;;;;;;;3341301;42;20584;-58
2022/06/19 03:14:24;;;;;;;5.20;1.98;;;;;;;;;;3346292;42;20123;-56
2022/06/19 03:16:50;;;;;;;5.50;2.10;;;;;;;;;;3343134;42;20100;-59
2022/06/19 03:19:16;;;;;;;5.53;1.98;;;;;;;;;;3345581;42;20091;-56
2022/06/19 03:21:42;;;;;;;5.47;2.20;;;;;;;;;;3343329;42;20089;-56
2022/06/19 03:24:08;;;;;;;5.75;2.28;;;;;;;;;;3345418;42;20081;-59
2022/06/19 03:26:34;;;;;;;7.20;2.17;;;;;;;;;;3344320;42;20085;-58
2022/06/19 03:29:00;;;;;;;4.95;2.10;;;;;;;;;;3350103;42;20528;-59
2022/06/19 03:31:27;;;;;;;5.20;1.90;;;;;;;;;;3344455;42;20117;-58
2022/06/19 03:33:53;;;;;;;4.80;1.75;;;;;;;;;;3345547;42;20147;-57
2022/06/19 03:36:19;;;;;;;5.55;1.80;;;;;;;;;;3343409;42;20152;-59
2022/06/19 03:38:45;;;;;;;5.38;2.10;;;;;;;;;;3346695;42;20104;-57
2022/06/19 03:41:11;;;;;;;4.57;1.80;;;;;;;;;;3343771;42;20188;-58
2022/06/19 03:43:37;;;;;;;5.20;1.93;;;;;;;;;;3347409;42;20089;-58
2022/06/19 03:46:07;;;;;;;6.43;2.15;;;;;;;;;;3346261;42;20097;-58
2022/06/19 03:48:33;;;;;;;5.30;2.00;;;;;;;;;;3346089;42;20503;-57
2022/06/19 03:50:59;;;;;;;4.70;1.90;;;;;;;;;;3343642;42;20686;-58
2022/06/19 03:53:25;;;;;;;5.37;1.80;;;;;;;;;;3342760;42;20552;-59
2022/06/19 03:55:51;;;;;;;4.57;1.83;;;;;;;;;;3347035;42;20181;-58
2022/06/19 03:58:17;;;;;;;4.88;2.10;;;;;;;;;;3345924;42;20136;-60
2022/06/19 04:00:43;;;;;;;4.20;1.60;;;;;;;;;;3344099;42;20131;-58
2022/06/19 04:03:09;;;;;;;5.83;2.03;;;;;;;;;;3347412;42;20164;-58
2022/06/19 04:05:35;;;;;;;4.85;2.05;;;;;;;;;;3347944;42;20304;-59
2022/06/19 04:08:01;;;;;;;6.75;1.98;;;;;;;;;;3346262;42;20138;-58
2022/06/19 04:10:28;;;;;;;4.60;2.08;;;;;;;;;;3348024;42;20088;-57
2022/06/19 04:12:54;;;;;;;5.23;2.00;;;;;;;;;;3349207;42;20541;-59
2022/06/19 04:15:20;;;;;;;5.30;1.90;;;;;;;;;;3345605;42;20093;-59
2022/06/19 04:17:45;;;;;;;4.93;2.05;;;;;;;;;;3348217;42;20320;-58
2022/06/19 04:20:12;;;;;;;4.80;2.20;;;;;;;;;;3351361;42;20135;-58
2022/06/19 04:22:38;;;;;;;4.50;1.80;;;;;;;;;;3350145;42;20144;-58
2022/06/19 04:25:13;;;;;;;6.10;2.00;;;;;;;;;;3347461;42;20511;-58
2022/06/19 04:27:40;;;;;;;4.85;1.92;;;;;;;;;;3346740;42;20099;-60
2022/06/19 04:30:07;;;;;;;5.85;1.85;;;;;;;;;;3348187;42;20552;-60
2022/06/19 04:32:33;;;;;;;5.03;2.00;;;;;;;;;;3349103;42;20093;-58
2022/06/19 04:34:59;;;;;;;4.90;1.90;;;;;;;;;;3346969;42;20104;-60
2022/06/19 04:37:25;;;;;;;5.05;1.80;;;;;;;;;;3347036;42;20635;-58
2022/06/19 04:39:51;;;;;;;5.95;1.92;;;;;;;;;;3349438;42;20097;-59
2022/06/19 04:42:17;;;;;;;5.30;1.90;;;;;;;;;;3347472;42;20542;-58
2022/06/19 04:44:43;;;;;;;6.40;1.90;;;;;;;;;;3349677;42;20211;-60
2022/06/19 04:47:09;;;;;;;5.90;1.90;;;;;;;;;;3350834;42;20093;-60
2022/06/19 04:49:35;;;;;;;6.07;1.80;;;;;;;;;;3345982;42;20167;-59
2022/06/19 04:52:01;;;;;;;5.28;1.85;;;;;;;;;;3348497;42;20077;-58
2022/06/19 04:54:27;;;;;;;5.18;2.08;;;;;;;;;;3345095;42;20149;-58
2022/06/19 04:56:52;;;;;;;4.93;1.60;;;;;;;;;;3351258;42;20101;-59
2022/06/19 04:59:18;;;;;;;5.53;1.70;;;;;;;;;;3351055;42;20169;-59
2022/06/19 05:01:44;;;;;;;4.70;1.60;;;;;;;;;;3347639;42;20599;-60
2022/06/19 05:04:11;;;;;;;4.70;1.50;;;;;;;;;;3349817;42;20089;-58
2022/06/19 05:06:37;;;;;;;4.97;1.70;;;;;;;;;;3348027;42;20085;-56
2022/06/19 05:09:03;;;;;;;5.80;1.60;;;;;;;;;;3352830;42;20081;-59
2022/06/19 05:11:32;;;;;;;4.80;1.50;;;;;;;;;;3348709;42;20096;-59
2022/06/19 05:13:59;;;;;;;4.75;1.50;;;;;;;;;;3347071;42;20080;-59
2022/06/19 05:16:25;;;;;;;4.60;1.60;;;;;;;;;;3349290;42;20124;-60
2022/06/19 05:18:53;;;;;;;5.47;1.60;;;;;;;;;;3350504;42;20080;-58
2022/06/19 05:21:19;;;;;;;5.80;1.67;;;;;;;;;;3350593;42;20085;-58
2022/06/19 05:23:46;;;;;;;4.45;1.45;;;;;;;;;;3352035;42;20160;-59
2022/06/19 05:26:12;;;;;;;4.97;1.52;;;;;;;;;;3351440;42;20137;-58
2022/06/19 05:28:38;;;;;;;3.85;1.38;;;;;;;;;;3350723;42;20093;-59
2022/06/19 05:31:04;;;;;;;5.17;1.50;;;;;;;;;;3352092;42;20144;-56
2022/06/19 05:33:30;;;;;;;4.88;1.77;;;;;;;;;;3350116;42;20124;-58
2022/06/19 05:35:57;;;;;;;5.55;1.65;;;;;;;;;;3349713;42;20077;-58
2022/06/19 05:38:23;;;;;;;5.07;1.67;;;;;;;;;;3349911;42;20572;-61
2022/06/19 05:40:53;;;;;;;7.25;1.85;;;;;;;;;;3350172;42;20208;-59
2022/06/19 05:43:19;;;;;;;5.27;1.60;;;;;;;;;;3347889;42;20092;-58
2022/06/19 05:45:52;;;;;;;8.60;1.70;;;;;;;;;;3349647;42;20092;-60
2022/06/19 05:48:18;;;;;;;4.68;1.58;;;;;;;;;;3348398;42;20183;-57
2022/06/19 05:50:44;;;;;;;4.43;1.70;;;;;;;;;;3347829;42;20149;-58
2022/06/19 05:53:10;;;;;;;6.40;1.90;;;;;;;;;;3350827;42;20100;-57
2022/06/19 05:55:36;;;;;;;5.65;1.80;;;;;;;;;;3346653;42;20096;-60
2022/06/19 05:58:02;;;;;;;4.70;1.80;;;;;;;;;;3347675;42;20104;-57
2022/06/19 06:00:28;;;;;;;6.40;1.80;;;;;;;;;;3351931;42;20532;-58
2022/06/19 06:02:54;;;;;;;4.80;1.83;;;;;;;;;;3350363;42;20107;-58
2022/06/19 06:05:20;;;;;;;6.03;1.60;;;;;;;;;;3351206;42;20590;-59
2022/06/19 06:07:49;;;;;;;7.05;1.73;;;;;;;;;;3354656;42;20144;-55
2022/06/19 06:10:15;;;;;;;5.22;1.77;;;;;;;;;;3354104;42;20136;-58
2022/06/19 06:12:41;;;;;;;5.73;1.73;;;;;;;;;;3347956;42;20104;-59
2022/06/19 06:15:07;;;;;;;5.93;1.70;;;;;;;;;;3349764;42;20094;-58
2022/06/19 06:17:33;;;;;;;6.57;1.80;;;;;;;;;;3355699;42;20641;-58
2022/06/19 06:19:59;;;;;;;5.43;1.70;;;;;;;;;;3350015;42;20164;-58
2022/06/19 06:22:25;;;;;;;5.00;1.50;;;;;;;;;;3350226;42;20581;-60
2022/06/19 06:24:51;;;;;;;4.68;1.60;;;;;;;;;;3351290;42;20144;-60
2022/06/19 06:27:17;;;;;;;4.93;1.60;;;;;;;;;;3354448;42;20096;-58
2022/06/19 06:29:42;;;;;;;4.20;1.52;;;;;;;;;;3346032;42;20085;-59
2022/06/19 06:32:08;;;;;;;6.73;1.67;;;;;;;;;;3347789;42;20103;-59
2022/06/19 06:34:34;;;;;;;9.32;1.52;;;;;;;;;;3352983;42;20093;-60
2022/06/19 06:37:00;;;;;;;4.93;1.42;;;;;;;;;;3351813;42;20119;-60
2022/06/19 06:39:26;;;;;;;4.90;1.70;;;;;;;;;;3351692;42;20093;-61
2022/06/19 06:41:52;;;;;;;5.97;1.50;;;;;;;;;;3346171;42;20123;-58
2022/06/19 06:44:18;;;;;;;4.00;1.40;;;;;;;;;;3346543;42;20093;-65
2022/06/19 06:46:44;;;;;;;4.33;1.43;;;;;;;;;;3351433;42;20614;-58
2022/06/19 06:49:10;;;;;;;4.97;1.50;;;;;;;;;;3350639;42;20283;-57
2022/06/19 06:51:36;;;;;;;5.97;1.60;;;;;;;;;;3350944;42;20096;-61
2022/06/19 06:54:02;;;;;;;3.55;1.20;;;;;;;;;;3348542;42;20152;-58
2022/06/19 06:56:32;;;;;;;4.63;1.50;;;;;;;;;;3357814;42;20089;-57
2022/06/19 06:58:58;;;;;;;10.07;1.43;;;;;;;;;;3351848;42;20093;-62
2022/06/19 07:01:24;;;;;;;4.18;1.55;;;;;;;;;;3353120;42;20176;-60
2022/06/19 07:03:54;;;;;;;5.10;1.38;;;;;;;;;;3349033;42;20164;-60
2022/06/19 07:06:22;;;;;;;4.30;1.40;;;;;;;;;;3343964;42;20108;-58
2022/06/19 07:08:48;;;;;;;4.57;1.30;;;;;;;;;;3350432;42;20093;-58
2022/06/19 07:11:21;;;;;;;3.67;1.20;;;;;;;;;;3347433;42;20100;-59
2022/06/19 07:13:47;;;;;;;5.43;1.30;;;;;;;;;;3349136;42;20092;-57
2022/06/19 07:16:13;;;;;;;6.60;1.40;;;;;;;;;;3343618;42;20092;-58
2022/06/19 07:18:39;;;;;;;5.90;1.30;;;;;;;;;;3353059;42;20152;-59
2022/06/19 07:21:05;;;;;;;6.93;1.30;;;;;;;;;;3347057;42;20097;-58
2022/06/19 07:23:31;;;;;;;4.10;1.30;;;;;;;;;;3344443;42;20301;-58
2022/06/19 07:25:57;;;;;;;3.95;1.30;;;;;;;;;;3347264;42;20617;-57
2022/06/19 07:28:23;;;;;;;4.40;1.23;;;;;;;;;;3348539;42;20111;-59
2022/06/19 07:30:50;;;;;;;4.85;1.10;;;;;;;;;;3343940;42;20092;-60
2022/06/19 07:33:15;;;;;;;5.47;1.60;;;;;;;;;;3347198;42;20179;-60
2022/06/19 07:35:41;;;;;;;4.30;1.35;;;;;;;;;;3348643;42;20085;-61
2022/06/19 07:38:07;;;;;;;4.65;1.27;;;;;;;;;;3343974;42;20089;-60
2022/06/19 07:40:34;;;;;;;4.00;1.20;;;;;;;;;;3349331;42;20644;-59
2022/06/19 07:43:00;;;;;;;4.13;1.33;;;;;;;;;;3348238;42;20153;-60
2022/06/19 07:45:29;;;;;;;4.60;1.50;;;;;;;;;;3351657;42;20506;-59
2022/06/19 07:50:39;;;;;;;4.18;1.40;;;;;;;;;;3347880;42;20112;-58
2022/06/19 07:53:05;;;;;;;6.00;1.70;;;;;;;;;;3350023;42;20085;-58
2022/06/19 07:55:31;;;;;;;3.90;1.30;;;;;;;;;;3344451;42;20081;-58
2022/06/19 07:57:59;;;;;;;5.65;1.33;;;;;;;;;;3351650;42;20099;-59
2022/06/19 08:00:31;;;;;;;5.80;1.40;;;;;;;;;;3352052;42;20483;-59
2022/06/19 08:02:57;;;;;;;5.70;1.30;;;;;;;;;;3348192;42;20093;-58
2022/06/19 08:05:25;;;;;;;4.20;1.50;;;;;;;;;;3348109;42;20144;-57
2022/06/19 08:07:52;;;;;;;6.00;1.40;;;;;;;;;;3349539;42;20543;-57
2022/06/19 08:10:29;;;;;;;4.90;1.45;;;;;;;;;;3348107;42;20144;-59
2022/06/19 08:12:55;;;;;;;4.50;1.50;;;;;;;;;;3351748;42;20092;-59
2022/06/19 08:15:21;;;;;;;4.90;1.53;;;;;;;;;;3346346;42;20093;-58
2022/06/19 08:17:47;;;;;;;4.88;1.50;;;;;;;;;;3348582;42;20088;-59
2022/06/19 08:20:13;;;;;;;5.32;1.58;;;;;;;;;;3348242;42;20085;-58
2022/06/19 08:22:40;;;;;;;3.75;1.30;;;;;;;;;;3348772;42;20089;-59
2022/06/19 08:25:07;;;;;;;4.13;1.45;;;;;;;;;;3347194;42;20145;-60
2022/06/19 08:27:36;;;;;;;5.27;1.77;;;;;;;;;;3346136;42;20107;-58
2022/06/19 08:30:06;;;;;;;4.45;1.30;;;;;;;;;;3351787;42;20152;-59
2022/06/19 08:32:32;;;;;;;4.70;1.40;;;;;;;;;;3345427;42;20112;-59
2022/06/19 08:34:58;;;;;;;4.85;1.40;;;;;;;;;;3350225;42;20558;-60
2022/06/19 08:37:24;;;;;;;4.70;1.60;;;;;;;;;;3348219;42;20571;-59
2022/06/19 08:39:50;;;;;;;5.13;1.90;;;;;;;;;;3345873;42;20097;-59
2022/06/19 08:42:36;;;;;;;6.32;1.70;;;;;;;;;;3347248;42;20153;-61
2022/06/19 08:45:33;;;;;;;7.22;1.50;;;;;;;;;;3342640;42;20139;-59
2022/06/19 08:48:23;;;;;;;5.33;1.60;;;;;;;;;;3343020;42;20081;-58
2022/06/19 08:51:02;;;;;;;4.10;1.55;;;;;;;;;;3347569;42;20100;-59
2022/06/19 08:54:13;;;;;;;5.05;1.80;;;;;;;;;;3347183;42;20085;-59
2022/06/19 08:56:53;;;;;;;5.78;1.63;;;;;;;;;;3332355;42;20142;-58
2022/06/19 08:59:41;;;;;;;5.10;1.50;;;;;;;;;;3340983;42;20113;-58
2022/06/19 09:02:10;;;;;;;4.63;1.60;;;;;;;;;;3349064;42;20120;-58
2022/06/19 09:07:56;;;;;;;7.80;1.60;;;;;;;;;;3345529;42;20144;-58
2022/06/19 09:10:51;;;;;;;5.00;1.50;;;;;;;;;;3342626;42;20088;-59
2022/06/19 09:13:40;;;;;;;5.50;1.70;;;;;;;;;;3346679;42;20135;-57
2022/06/19 09:16:24;;;;;;;5.50;1.70;;;;;;;;;;3350430;42;20160;-58
2022/06/19 09:19:10;;;;;;;4.95;1.50;;;;;;;;;;3344989;42;20096;-58
2022/06/19 09:21:54;;;;;;;8.23;1.80;;;;;;;;;;3342159;42;20144;-59
2022/06/19 09:24:58;;;;;;;6.60;1.75;;;;;;;;;;3346998;42;20081;-59
2022/06/19 09:27:30;;;;;;;4.50;1.70;;;;;;;;;;3343569;42;20096;-57
2022/06/19 09:30:02;;;;;;;5.90;1.57;;;;;;;;;;3348722;42;20583;-58
2022/06/19 09:32:36;;;;;;;5.10;1.58;;;;;;;;;;3347107;42;20637;-57
2022/06/19 09:35:16;;;;;;;4.53;1.60;;;;;;;;;;3348572;42;20124;-59
2022/06/19 09:37:47;;;;;;;5.65;1.55;;;;;;;;;;3340313;42;20148;-58
2022/06/19 09:40:32;;;;;;;5.75;1.63;;;;;;;;;;3346351;42;20136;-58
2022/06/19 09:43:29;;;;;;;5.67;1.70;;;;;;;;;;3344766;42;20551;-58
2022/06/19 09:46:09;;;;;;;4.38;1.50;;;;;;;;;;3346077;42;20148;-60
2022/06/19 09:48:45;;;;;;;4.70;1.73;;;;;;;;;;3346323;42;20153;-58
2022/06/19 09:51:21;;;;;;;4.80;1.60;;;;;;;;;;3352278;42;20093;-59
2022/06/19 09:53:55;;;;;;;6.53;1.80;;;;;;;;;;3346343;42;20244;-60
2022/06/19 09:56:37;;;;;;;4.40;1.60;;;;;;;;;;3340813;42;20284;-58
2022/06/19 09:59:09;;;;;;;4.93;1.67;;;;;;;;;;3349367;42;20141;-59
2022/06/19 10:01:35;;;;;;;6.47;1.67;;;;;;;;;;3349381;42;20208;-59
2022/06/19 10:04:08;;;;;;;5.75;1.70;;;;;;;;;;3348582;42;20121;-58
2022/06/19 10:06:42;;;;;;;6.68;1.50;;;;;;;;;;3347055;42;20104;-58
2022/06/19 10:09:26;;;;;;;5.87;1.80;;;;;;;;;;3340318;42;20108;-59
2022/06/19 10:11:55;;;;;;;4.50;1.70;;;;;;;;;;3351378;42;20162;-59
2022/06/19 10:14:32;;;;;;;4.22;1.55;;;;;;;;;;3332320;42;20152;-58
2022/06/19 10:17:00;;;;;;;4.43;1.65;;;;;;;;;;3342979;42;20108;-61
2022/06/19 10:19:41;;;;;;;5.75;1.70;;;;;;;;;;3350575;42;20092;-57
2022/06/19 10:22:28;;;;;;;5.03;1.83;;;;;;;;;;3348256;42;20080;-59
2022/06/19 10:25:10;;;;;;;5.10;1.80;;;;;;;;;;3348965;42;20093;-58
2022/06/19 10:28:13;;;;;;;4.88;1.70;;;;;;;;;;3348893;42;20120;-61
2022/06/19 10:31:14;;;;;;;5.63;1.83;;;;;;;;;;3347369;42;20216;-58
2022/06/19 10:33:43;;;;;;;4.30;1.75;;;;;;;;;;3343972;42;20616;-59
2022/06/19 10:36:54;;;;;;;5.03;1.67;;;;;;;;;;3346524;42;20562;-58
2022/06/19 10:39:40;;;;;;;5.20;1.98;;;;;;;;;;3346963;42;20205;-60
2022/06/19 10:42:28;;;;;;;5.35;1.80;;;;;;;;;;3346605;42;20151;-58
2022/06/19 10:45:16;;;;;;;5.28;1.90;;;;;;;;;;3347079;42;20167;-59
2022/06/19 10:48:10;;;;;;;5.57;1.80;;;;;;;;;;3345580;42;20146;-58
2022/06/19 10:50:56;;;;;;;4.50;1.70;;;;;;;;;;3343613;42;20499;-59
2022/06/19 10:53:42;;;;;;;5.85;1.98;;;;;;;;;;3345255;42;20132;-56
2022/06/19 10:56:14;;;;;;;7.43;1.88;;;;;;;;;;3347597;42;20089;-59
2022/06/19 10:58:40;;;;;;;5.15;1.67;;;;;;;;;;3345993;42;20145;-58
2022/06/19 11:01:08;;;;;;;4.57;1.70;;;;;;;;;;3352239;42;20494;-58
2022/06/19 11:06:27;;;;;;;4.40;1.60;;;;;;;;;;3346072;42;20104;-57
2022/06/19 11:08:59;;;;;;;4.63;1.85;;;;;;;;;;3352667;42;20136;-58
2022/06/19 11:11:25;;;;;;;5.40;1.85;;;;;;;;;;3342950;42;20650;-57
2022/06/19 11:14:07;;;;;;;6.30;1.77;;;;;;;;;;3340354;42;20095;-58
2022/06/19 11:16:34;;;;;;;4.60;1.80;;;;;;;;;;3353755;42;20268;-57
2022/06/19 11:19:00;;;;;;;6.20;1.98;;;;;;;;;;3341113;42;20145;-57
2022/06/19 11:21:28;;;;;;;6.20;1.80;;;;;;;;;;3347791;42;20164;-59
2022/06/19 11:23:59;;;;;;;5.65;1.90;;;;;;;;;;3339072;42;20152;-59
2022/06/19 11:26:27;;;;;;;5.75;1.90;;;;;;;;;;3338520;42;20089;-59
2022/06/19 11:28:54;;;;;;;5.33;1.93;;;;;;;;;;3349240;42;20100;-59
2022/06/19 11:31:29;;;;;;;6.40;1.80;;;;;;;;;;3349381;42;20141;-58
2022/06/19 11:34:00;;;;;;;4.55;1.77;;;;;;;;;;3347544;42;20081;-59
2022/06/19 11:36:38;;;;;;;5.57;1.98;;;;;;;;;;3346972;42;20626;-57
2022/06/19 11:39:33;;;;;;;5.82;2.10;;;;;;;;;;3343576;42;20290;-58
2022/06/19 11:42:17;;;;;;;7.97;1.90;;;;;;;;;;3348257;42;20512;-60
2022/06/19 11:45:13;;;;;;;4.80;1.90;;;;;;;;;;3347517;42;20246;-60
2022/06/19 11:48:05;;;;;;;4.85;1.90;;;;;;;;;;3340552;42;20100;-60
2022/06/19 11:50:33;;;;;;;6.88;1.92;;;;;;;;;;3348515;42;20136;-60
2022/06/19 11:53:06;;;;;;;4.60;1.90;;;;;;;;;;3348690;42;20081;-58
2022/06/19 11:56:09;;;;;;;6.30;1.90;;;;;;;;;;3349521;42;20093;-58
2022/06/19 11:58:40;;;;;;;5.05;1.95;;;;;;;;;;3343507;42;20545;-59
2022/06/19 12:01:13;;;;;;;6.45;2.20;;;;;;;;;;3339355;42;20100;-57
2022/06/19 12:03:55;;;;;;;5.90;1.83;;;;;;;;;;3347223;42;20097;-58
2022/06/19 12:06:57;;;;;;;4.88;1.95;;;;;;;;;;3348640;42;20171;-58
2022/06/19 12:09:39;;;;;;;6.80;2.27;;;;;;;;;;3350017;42;20139;-58
2022/06/19 12:12:12;;;;;;;5.25;2.35;;;;;;;;;;3349104;42;20100;-60
2022/06/19 12:15:12;;;;;;;6.07;1.98;;;;;;;;;;3346594;42;20714;-58
2022/06/19 12:17:41;;;;;;;6.85;2.20;;;;;;;;;;3352485;42;20650;-58
2022/06/19 12:20:07;;;;;;;5.72;1.80;;;;;;;;;;3346596;42;20141;-57
2022/06/19 12:22:52;;;;;;;7.33;1.83;;;;;;;;;;3347775;42;20096;-58
2022/06/19 12:25:24;;;;;;;6.55;1.90;;;;;;;;;;3352323;42;20085;-58
2022/06/19 12:27:54;;;;;;;5.82;1.90;;;;;;;;;;3350839;42;20093;-58
2022/06/19 12:30:26;;;;;;;5.25;1.83;;;;;;;;;;3338115;42;20108;-59
2022/06/19 12:32:52;;;;;;;5.80;1.90;;;;;;;;;;3349897;42;20170;-59
2022/06/19 12:35:36;;;;;;;5.35;1.80;;;;;;;;;;3349002;42;20133;-60
2022/06/19 12:38:02;;;;;;;6.25;1.90;;;;;;;;;;3348388;42;20088;-59
2022/06/19 12:40:48;;;;;;;5.13;2.00;;;;;;;;;;3347297;42;20104;-58
2022/06/19 12:43:23;;;;;;;5.38;2.00;;;;;;;;;;3343152;42;20089;-58
2022/06/19 12:45:54;;;;;;;6.67;1.90;;;;;;;;;;3349365;42;20132;-59
2022/06/19 12:48:28;;;;;;;8.27;2.10;;;;;;;;;;3342419;42;20077;-60
2022/06/19 12:51:19;;;;;;;9.02;2.40;;;;;;;;;;3348347;42;20163;-59
2022/06/19 12:54:07;;;;;;;8.00;2.10;;;;;;;;;;3339966;42;20084;-58
2022/06/19 12:56:44;;;;;;;8.93;2.40;;;;;;;;;;3349067;42;20088;-59
2022/06/19 12:59:31;;;;;;;6.17;2.40;;;;;;;;;;3347505;42;20096;-59
2022/06/19 13:02:01;;;;;;;7.18;2.30;;;;;;;;;;3347311;42;20133;-59
2022/06/19 13:04:59;;;;;;;9.40;2.40;;;;;;;;;;3350734;42;20541;-60
2022/06/19 13:07:39;;;;;;;9.27;2.08;;;;;;;;;;3341541;42;20567;-58
2022/06/19 13:10:32;;;;;;;7.85;2.10;;;;;;;;;;3348282;42;20156;-59
2022/06/19 13:13:10;;;;;;;7.17;2.00;;;;;;;;;;3347551;42;20093;-58
2022/06/19 13:15:51;;;;;;;6.53;1.90;;;;;;;;;;3344479;42;20092;-58
2022/06/19 13:18:43;;;;;;;6.60;2.20;;;;;;;;;;3343363;42;20105;-58
2022/06/19 13:21:25;;;;;;;6.90;2.10;;;;;;;;;;3339870;42;20110;-62
2022/06/19 13:23:57;;;;;;;6.30;2.15;;;;;;;;;;3345093;42;20129;-61
2022/06/19 13:27:10;;;;;;;6.33;2.23;;;;;;;;;;3347610;42;20102;-58
2022/06/19 13:29:50;;;;;;;6.20;2.00;;;;;;;;;;3333605;42;20141;-59
2022/06/19 13:32:34;;;;;;;5.63;2.22;;;;;;;;;;3346113;42;20173;-59
2022/06/19 13:35:24;;;;;;;6.65;1.98;;;;;;;;;;3345763;42;20186;-58
2022/06/19 13:38:01;;;;;;;6.20;2.30;;;;;;;;;;3342192;42;20092;-58
2022/06/19 13:40:36;;;;;;;6.03;2.10;;;;;;;;;;3341625;42;20177;-61
2022/06/19 13:43:34;;;;;;;7.40;2.30;;;;;;;;;;3345097;42;20564;-58
2022/06/19 13:46:06;;;;;;;7.30;2.10;;;;;;;;;;3340243;42;20085;-58
2022/06/19 13:48:55;;;;;;;6.40;2.40;;;;;;;;;;3335911;42;20089;-59
2022/06/19 13:51:36;;;;;;;6.03;2.00;;;;;;;;;;3344525;42;20125;-58
2022/06/19 13:54:11;;;;;;;7.43;2.33;;;;;;;;;;3335520;42;20216;-58
2022/06/19 13:57:03;;;;;;;6.30;2.00;;;;;;;;;;3342206;42;20149;-58
2022/06/19 13:59:48;;;;;;;5.25;2.10;;;;;;;;;;3337794;42;20101;-59
2022/06/19 14:02:29;;;;;;;5.88;2.20;;;;;;;;;;3342477;42;20531;-57
2022/06/19 14:05:01;;;;;;;6.80;2.20;;;;;;;;;;3343971;42;20630;-58
2022/06/19 14:07:30;;;;;;;5.80;2.20;;;;;;;;;;3346167;42;20163;-59
2022/06/19 14:10:34;;;;;;;6.28;2.30;;;;;;;;;;3341302;42;20100;-59
2022/06/19 14:13:02;;;;;;;6.53;2.35;;;;;;;;;;3340085;42;20100;-58
2022/06/19 14:15:43;;;;;;;8.77;2.40;;;;;;;;;;3348336;42;20658;-58
2022/06/19 14:18:30;;;;;;;6.38;2.30;;;;;;;;;;3341790;42;20492;-58
2022/06/19 14:21:17;;;;;;;7.33;2.40;;;;;;;;;;3344863;42;20164;-58
2022/06/19 14:23:54;;;;;;;6.25;2.47;;;;;;;;;;3341455;42;20204;-59
2022/06/19 14:26:38;;;;;;;8.20;2.50;;;;;;;;;;3347211;42;20097;-60
2022/06/19 14:29:17;;;;;;;9.32;2.30;;;;;;;;;;3343962;42;20160;-59
2022/06/19 14:31:43;;;;;;;6.95;2.28;;;;;;;;;;3349502;42;20107;-60
2022/06/19 14:34:10;;;;;;;7.17;2.43;;;;;;;;;;3348844;42;20097;-58
2022/06/19 14:36:36;;;;;;;6.80;2.47;;;;;;;;;;3345543;42;20097;-65
2022/06/19 14:39:23;;;;;;;8.80;2.80;;;;;;;;;;3345046;42;20141;-57
2022/06/19 14:41:59;;;;;;;8.45;2.47;;;;;;;;;;3345873;42;20096;-58
2022/06/19 14:44:25;;;;;;;6.25;2.38;;;;;;;;;;3333877;42;20465;-59
2022/06/19 14:47:06;;;;;;;6.50;2.60;;;;;;;;;;3350028;42;20604;-58
2022/06/19 14:49:54;;;;;;;8.13;2.50;;;;;;;;;;3341481;42;20089;-59
2022/06/19 14:52:35;;;;;;;8.52;2.80;;;;;;;;;;3345960;42;20203;-58
2022/06/19 14:55:10;;;;;;;6.53;2.50;;;;;;;;;;3351166;42;20166;-59
2022/06/19 14:57:47;;;;;;;8.68;2.45;;;;;;;;;;3344403;42;20111;-59
2022/06/19 15:00:13;;;;;;;8.20;2.60;;;;;;;;;;3346944;42;20152;-58
2022/06/19 15:02:59;;;;;;;6.78;2.45;;;;;;;;;;3346639;42;20137;-60
2022/06/19 15:05:52;;;;;;;6.05;2.25;;;;;;;;;;3333407;42;20173;-60
2022/06/19 15:08:33;;;;;;;7.97;3.63;;;;;;;;;;3342575;42;20519;-58
2022/06/19 15:11:04;;;;;;;11.52;5.43;;;;;;;;;;3339850;42;20173;-57
2022/06/19 15:13:30;;;;;;;13.57;6.60;;;;;;;;;;3337524;42;20158;-58
2022/06/19 15:16:33;;;;;;;13.13;6.28;;;;;;;;;;3343839;42;20144;-64
2022/06/19 15:19:19;;;;;;;9.75;4.97;;;;;;;;;;3346968;42;20093;-60
2022/06/19 15:21:48;;;;;;;9.23;4.07;;;;;;;;;;3347489;42;20096;-61
2022/06/19 15:24:43;;;;;;;8.05;2.75;;;;;;;;;;3346483;42;20165;-58
2022/06/19 15:27:14;;;;;;;8.77;2.93;;;;;;;;;;3333486;42;20111;-58